• Join FlightAware (Why Join?)
  • Login
  • US Flag 
07:10AM EDT


 

Airport Tracker/Info


-or-


 

Live Flight TrackerFlight Track Log ✈ DAL1349 ✈ 14-Apr-2013 ✈ KCRW - KATL

Flight Track Log - Related Links

Times and Time Zones

All times are in EDT time to prevent confusion due to time zone crossing. See the DAL1349 flight status page for this flight to view local times or setup timezone preferences in your user account.

Time Position Orientation Groundspeed Altitude Reporting Facility
EDT Latitude Longitude Course Direction KTS MPH feet Rate Location/Type
07:07AM 38.3442 -81.6269 204° Southwest 159 183 3,000  Level Indianapolis Center
07:08AM 38.2925 -81.6558 204° Southwest 196 226 5,400 2,880 Climbing Indianapolis Center
07:09AM 38.2225 -81.6950 204° Southwest 264 304 8,900 3,000 Climbing Indianapolis Center
07:10AM 38.1494 -81.7386 205° Southwest 288 331 11,600 2,040 Climbing Indianapolis Center
07:11AM 38.0564 -81.7911 204° Southwest 361 415 13,100 2,100 Climbing Indianapolis Center
07:12AM 37.9531 -81.8494 204° Southwest 400 460 15,900 2,400 Climbing Indianapolis Center
07:13AM 37.8483 -81.9106 205° Southwest 412 474 18,100 2,160 Climbing Indianapolis Center
07:14AM 37.7275 -81.9789 204° Southwest 429 494 20,400 2,040 Climbing Indianapolis Center
07:15AM 37.6156 -82.0431 204° Southwest 437 503 22,300 1,800 Climbing Indianapolis Center
07:16AM 37.4986 -82.1072 204° Southwest 451 519 24,100 1,620 Climbing Indianapolis Center
07:17AM 37.3822 -82.1744 205° Southwest 456 525 25,600 1,980 Climbing Indianapolis Center
07:18AM 37.2856 -82.2286 204° Southwest 453 521 27,700 2,220 Climbing Atlanta Center
07:19AM 37.1739 -82.2936 205° Southwest 453 521 29,700 1,140 Climbing Atlanta Center
07:20AM 37.0622 -82.3533 203° Southwest 443 510 30,000 120 Climbing Atlanta Center
07:21AM 36.9503 -82.4078 201° Southwest 435 501 30,000  Level Atlanta Center
07:21AM 36.9308 -82.4158 198° South 436 502 30,000  Level Indianapolis Center
07:22AM 36.8342 -82.4542 198° South 440 506 30,000  Level Atlanta Center
07:23AM 36.7283 -82.4978 198° South 440 506 30,000  Level Atlanta Center
07:24AM 36.6144 -82.5439 198° South 440 506 30,000  Level Atlanta Center
07:25AM 36.4961 -82.5900 197° South 440 506 30,000  Level Atlanta Center
07:26AM 36.3819 -82.6383 199° South 440 506 30,000  Level Atlanta Center
07:27AM 36.2656 -82.6842 198° South 440 506 30,000  Level Atlanta Center
07:28AM 36.1514 -82.7300 198° South 440 506 30,000  Level Atlanta Center
07:29AM 36.0350 -82.7753 197° South 440 506 30,000  Level Atlanta Center
07:30AM 35.9186 -82.8208 198° South 440 506 30,000  Level Atlanta Center
07:31AM 35.8044 -82.8686 199° South 440 506 30,000  Level Atlanta Center
07:32AM 35.6861 -82.9136 197° South 440 506 30,000 -300 Level Atlanta Center
07:33AM 35.5758 -82.9689 202° Southwest 440 506 29,400 -840 Descending Atlanta Center
07:34AM 35.4639 -83.0317 205° Southwest 440 506 28,400 -1,020 Descending Atlanta Center
07:35AM 35.3475 -83.1042 207° Southwest 440 506 27,400 -1,020 Descending Atlanta Center
07:36AM 35.2417 -83.1692 207° Southwest 435 501 26,400 -1,020 Descending Atlanta Center
07:37AM 35.1356 -83.2311 206° Southwest 430 495 25,400 -1,020 Descending Atlanta Center
07:38AM 35.0294 -83.2956 206° Southwest 425 489 24,400 -720 Descending Atlanta Center
07:39AM 34.9278 -83.3522 205° Southwest 420 483 24,000 -240 Descending Atlanta Center
07:40AM 34.8194 -83.4189 207° Southwest 427 491 24,000  Level Atlanta Center
07:41AM 34.7114 -83.4803 205° Southwest 420 483 24,000  Level Atlanta Center
07:42AM 34.6072 -83.5417 206° Southwest 420 483 24,000 -300 Level Atlanta Center
07:43AM 34.5011 -83.6028 205° Southwest 420 483 23,400 -900 Descending Atlanta Center
07:44AM 34.3969 -83.6636 206° Southwest 420 483 22,300 -1,680 Descending Atlanta Center
07:45AM 34.2969 -83.7219 206° Southwest 413 475 20,100 -3,000 Descending Atlanta Center
07:46AM 34.1967 -83.7800 206° Southwest 404 465 16,400 -3,060 Descending Atlanta Center
07:47AM 34.1050 -83.8356 207° Southwest 380 437 14,000 -1,440 Descending Atlanta Center
07:48AM 34.0322 -83.9008 217° Southwest 375 432 13,600 -1,620 Descending Atlanta Center
07:48AM 33.9833 -83.9500 220° Southwest 364 419 11,600 -1,740 Descending Atlanta TRACON
07:49AM 33.9167 -84.0167 220° Southwest 317 365 11,000 -300 Descending Atlanta TRACON
07:50AM 33.8667 -84.0833 228° Southwest 285 328 11,000  Level Atlanta TRACON
07:51AM 33.8317 -84.1089 211° Southwest 298 343 11,000  Level Atlanta Center
07:51AM 33.8000 -84.1333 213° Southwest 250 288 11,000  Level Atlanta TRACON
07:52AM 33.7333 -84.1667 203° Southwest 237 273 11,000  Level Atlanta TRACON
07:53AM 33.7333 -84.2500 270° West 242 278 11,000  Level Atlanta TRACON
07:54AM 33.7333 -84.3333 270° West 244 281 11,000 -540 Level Atlanta TRACON
07:55AM 33.7333 -84.4167 270° West 247 284 10,000 -1,140 Descending Atlanta TRACON
07:56AM 33.7333 -84.5000 270° West 245 282 8,800 -1,560 Descending Atlanta TRACON
07:57AM 33.7333 -84.5667 270° West 237 273 6,900 -1,980 Descending Atlanta TRACON
07:58AM 33.7167 -84.6500 257° West 242 278 4,900 -1,440 Descending Atlanta TRACON
08:00AM 33.6667 -84.6500 180° South 209 241 4,000 -600 Descending Atlanta TRACON
08:00AM 33.6500 -84.5833 107° East 177 204 3,700 -780 Descending Atlanta TRACON
08:01AM 33.6500 -84.5333 90° East 180 207 2,600 -900 Descending Atlanta TRACON
08:02AM 33.6500 -84.4833 90° East 125 144 1,900 -660 Descending Atlanta TRACON
08:03AM 33.6500 -84.4500 90° East 116 133 1,300 -600 Descending Atlanta TRACON
08:05AM 33.6367 -84.4279 64° Northeast  Level Estimated
08:12AM 33.6367 -84.4279 64° Northeast  Level Estimated